Time;durP1;ratioP1;P1;durP2;ratioP2;P2;SDS_P1;SDS_P2;PMS_P1;PMS_P2;Temp;Humidity;BMP_temperature;BMP_pressure;BME280_temperature;BME280_humidity;BME280_pressure;Samples;Min_cycle;Max_cycle;Signal;HPM_P1;HPM_P2
2023/07/31 00:02:22;;;;;;;17.60;11.70;;;;;;;28.34;100.00;100011.27;108765;1256;59695;-87
2023/07/31 00:05:11;;;;;;;14.80;11.90;;;;;;;28.38;100.00;100008.67;108850;1255;59170;-88
2023/07/31 00:07:59;;;;;;;14.00;11.40;;;;;;;28.33;100.00;100006.77;108856;1255;67989;-89
2023/07/31 00:10:52;;;;;;;14.70;11.50;;;;;;;28.34;100.00;100009.24;108913;1257;61047;-87
2023/07/31 00:13:40;;;;;;;16.20;11.90;;;;;;;28.33;100.00;100011.19;108924;1255;65877;-88
2023/07/31 00:16:28;;;;;;;14.80;10.30;;;;;;;28.34;100.00;100010.13;108826;1256;59095;-87
2023/07/31 00:19:17;;;;;;;16.20;10.30;;;;;;;28.28;100.00;100014.11;108895;1256;59633;-86
2023/07/31 00:22:05;;;;;;;10.70;9.40;;;;;;;28.22;100.00;100017.19;108816;1256;69045;-89
2023/07/31 00:24:53;;;;;;;13.20;9.20;;;;;;;28.17;100.00;100013.13;108883;1256;62213;-89
2023/07/31 00:27:44;;;;;;;10.90;9.50;;;;;;;28.03;100.00;100015.05;108829;1257;62494;-89
2023/07/31 00:30:32;;;;;;;11.10;8.40;;;;;;;27.95;100.00;100015.17;108768;1256;59175;-90
2023/07/31 00:33:21;;;;;;;11.40;8.90;;;;;;;27.96;100.00;100009.88;108891;1257;59157;-88
2023/07/31 00:36:09;;;;;;;16.70;10.10;;;;;;;28.02;100.00;100009.04;108698;1256;67885;-88
2023/07/31 00:38:58;;;;;;;12.30;9.30;;;;;;;28.00;100.00;100005.77;108837;1255;62176;-88
2023/07/31 00:41:47;;;;;;;12.00;9.20;;;;;;;28.00;100.00;100006.48;108773;1256;66195;-89
2023/07/31 00:44:35;;;;;;;16.00;9.00;;;;;;;27.94;100.00;100006.27;108867;1255;59146;-89
2023/07/31 00:47:23;;;;;;;15.80;9.50;;;;;;;27.95;100.00;100005.39;108836;1256;59273;-88
2023/07/31 00:50:13;;;;;;;14.70;8.90;;;;;;;28.24;100.00;100001.52;108867;1255;68424;-88
2023/07/31 00:53:01;;;;;;;11.30;9.30;;;;;;;28.24;100.00;99999.05;108823;1257;59890;-87
2023/07/31 00:55:50;;;;;;;10.20;8.60;;;;;;;28.06;100.00;99997.30;108726;1259;65146;-88
2023/07/31 00:58:39;;;;;;;10.90;9.20;;;;;;;27.97;100.00;99995.83;108766;1257;59675;-87
2023/07/31 01:01:29;;;;;;;10.50;9.20;;;;;;;28.04;100.00;99990.74;108781;1257;61221;-88
2023/07/31 01:04:17;;;;;;;15.00;10.00;;;;;;;28.16;100.00;99990.58;108864;1257;68910;-89
2023/07/31 01:07:41;;;;;;;11.50;8.30;;;;;;;28.38;100.00;99986.43;108868;1256;59770;-87
2023/07/31 01:10:37;;;;;;;12.60;9.70;;;;;;;28.46;100.00;99987.44;108858;1256;66431;-87
2023/07/31 01:13:25;;;;;;;13.00;10.00;;;;;;;28.45;100.00;99985.52;108729;1257;59145;-88
2023/07/31 01:16:13;;;;;;;11.90;9.90;;;;;;;28.45;100.00;99989.45;108575;1258;59467;-89
2023/07/31 01:19:02;;;;;;;11.00;9.80;;;;;;;28.40;100.00;99991.25;108753;1258;68369;-87
2023/07/31 01:22:09;;;;;;;16.10;10.60;;;;;;;28.29;100.00;99993.88;108898;1256;61073;-90
2023/07/31 01:25:24;;;;;;;10.10;9.10;;;;;;;28.15;100.00;99993.40;108800;1257;65637;-88
2023/07/31 01:28:34;;;;;;;10.30;8.80;;;;;;;27.96;100.00;99993.10;108802;1256;59709;-89
2023/07/31 01:31:25;;;;;;;9.20;8.10;;;;;;;27.92;100.00;99994.97;108869;1255;59624;-88
2023/07/31 01:34:14;;;;;;;8.70;7.80;;;;;;;28.05;100.00;99994.42;108687;1256;67103;-87
2023/07/31 01:37:04;;;;;;;9.80;7.10;;;;;;;28.14;100.00;99993.16;108809;1255;61344;-87
2023/07/31 01:39:52;;;;;;;9.20;6.60;;;;;;;27.97;100.00;99995.59;108877;1257;66497;-87
2023/07/31 01:42:40;;;;;;;12.90;7.50;;;;;;;27.90;100.00;99995.95;108840;1257;59840;-90
2023/07/31 01:45:29;;;;;;;12.80;7.60;;;;;;;27.92;100.00;99995.38;108839;1257;59889;-89
2023/07/31 01:48:17;;;;;;;11.20;7.10;;;;;;;27.97;100.00;99994.15;108915;1255;68421;-87
2023/07/31 01:51:06;;;;;;;10.70;6.50;;;;;;;27.97;100.00;99987.40;108880;1255;59838;-87
2023/07/31 01:53:54;;;;;;;14.00;7.30;;;;;;;27.91;100.00;99990.80;108689;1256;64692;-89
2023/07/31 01:56:43;;;;;;;10.10;6.00;;;;;;;27.95;100.00;99989.98;108824;1256;59156;-89
2023/07/31 01:59:31;;;;;;;9.10;6.60;;;;;;;27.89;100.00;99990.65;108868;1258;59384;-89
2023/07/31 02:02:20;;;;;;;11.00;6.40;;;;;;;27.82;100.00;99988.35;108731;1255;66142;-88
2023/07/31 02:05:09;;;;;;;8.20;5.90;;;;;;;27.86;100.00;99985.77;108864;1255;62483;-89
2023/07/31 02:07:58;;;;;;;8.50;6.60;;;;;;;27.71;100.00;99988.78;108816;1257;62521;-89
2023/07/31 02:10:48;;;;;;;8.50;5.80;;;;;;;27.59;100.00;99988.11;108864;1257;59301;-88
2023/07/31 02:13:36;;;;;;;7.50;6.40;;;;;;;27.57;100.00;99985.31;108795;1256;59581;-88
2023/07/31 02:16:24;;;;;;;8.50;6.50;;;;;;;27.59;100.00;99985.55;108892;1256;68710;-89
2023/07/31 02:19:13;;;;;;;8.00;5.60;;;;;;;27.60;100.00;99984.66;108898;1256;68087;-90
2023/07/31 02:22:01;;;;;;;8.90;5.70;;;;;;;27.70;100.00;99987.58;108755;1262;66003;-88
2023/07/31 02:24:49;;;;;;;7.00;5.00;;;;;;;27.73;100.00;99982.91;108793;1257;59570;-87
2023/07/31 02:27:38;;;;;;;8.60;5.70;;;;;;;27.63;100.00;99984.89;108886;1258;59208;-87
2023/07/31 02:30:26;;;;;;;5.20;4.70;;;;;;;27.61;100.00;99985.78;108873;1256;66197;-88
2023/07/31 02:33:15;;;;;;;5.60;5.00;;;;;;;27.50;100.00;99983.73;108816;1255;62282;-90
2023/07/31 02:36:04;;;;;;;10.40;5.40;;;;;;;27.64;100.00;99983.60;108813;1256;64904;-90
2023/07/31 02:38:52;;;;;;;6.10;5.60;;;;;;;27.54;100.00;99979.14;108809;1261;59637;-89
2023/07/31 02:41:40;;;;;;;8.40;5.90;;;;;;;27.50;100.00;99973.48;108874;1257;59029;-87
2023/07/31 02:44:28;;;;;;;7.80;5.40;;;;;;;27.49;100.00;99971.87;108800;1256;68006;-89
2023/07/31 02:47:17;;;;;;;7.40;5.30;;;;;;;27.52;100.00;99972.58;108789;1261;59074;-88
2023/07/31 02:50:06;;;;;;;7.20;5.40;;;;;;;27.50;100.00;99974.44;108932;1257;65263;-87
2023/07/31 02:52:54;;;;;;;7.20;5.00;;;;;;;27.56;100.00;99980.75;108857;1257;59067;-87
2023/07/31 02:55:43;;;;;;;6.60;5.00;;;;;;;27.61;100.00;99982.34;108691;1255;59269;-88
2023/07/31 02:58:31;;;;;;;6.90;5.50;;;;;;;27.69;100.00;99982.22;108801;1257;65177;-90
2023/07/31 03:01:19;;;;;;;5.60;4.90;;;;;;;27.81;100.00;99983.05;108817;1257;72992;-87
2023/07/31 03:04:08;;;;;;;7.90;5.30;;;;;;;27.96;100.00;99983.00;108812;1257;66041;-87
2023/07/31 03:06:56;;;;;;;6.80;6.00;;;;;;;28.04;100.00;99986.41;108742;1257;59247;-88
2023/07/31 03:09:45;;;;;;;8.50;6.70;;;;;;;28.10;100.00;99980.35;108910;1257;59209;-89
2023/07/31 03:12:33;;;;;;;8.00;6.70;;;;;;;28.31;100.00;99982.63;108785;1257;65869;-89
2023/07/31 03:15:22;;;;;;;6.30;5.70;;;;;;;28.52;100.00;99984.52;108733;1257;63367;-90
2023/07/31 03:18:10;;;;;;;7.00;6.30;;;;;;;28.73;100.00;99986.59;108743;1257;66384;-90
2023/07/31 03:20:58;;;;;;;6.70;5.20;;;;;;;28.91;100.00;99990.85;108796;1256;59059;-89
2023/07/31 03:23:47;;;;;;;6.80;4.90;;;;;;;28.86;100.00;99995.94;108821;1257;59120;-87
2023/07/31 03:26:36;;;;;;;8.90;5.80;;;;;;;28.86;100.00;99993.86;108851;1257;64463;-90
2023/07/31 03:29:25;;;;;;;7.80;6.00;;;;;;;28.91;100.00;99987.88;108847;1257;62191;-88
2023/07/31 03:32:13;;;;;;;6.30;5.60;;;;;;;28.95;100.00;99982.05;108900;1257;62450;-88
2023/07/31 03:35:02;;;;;;;9.20;6.40;;;;;;;28.91;100.00;99983.13;108900;1257;59218;-89
2023/07/31 03:37:50;;;;;;;6.80;5.00;;;;;;;28.94;100.00;99985.91;108889;1256;59098;-90
2023/07/31 03:40:39;;;;;;;5.80;5.20;;;;;;;29.09;100.00;99988.04;108831;1257;68495;-89
2023/07/31 03:43:27;;;;;;;10.10;5.20;;;;;;;29.18;100.00;99985.07;108757;1256;61182;-90
2023/07/31 03:46:16;;;;;;;9.40;6.30;;;;;;;29.23;100.00;99986.30;108850;1257;65744;-89
2023/07/31 03:49:04;;;;;;;7.00;5.70;;;;;;;29.31;100.00;99990.55;108791;1257;59129;-89
2023/07/31 03:51:53;;;;;;;7.20;5.60;;;;;;;29.52;100.00;99993.20;108800;1257;59827;-91
2023/07/31 03:54:44;;;;;;;6.70;6.00;;;;;;;29.71;100.00;99994.53;108849;1256;64973;-89
2023/07/31 03:57:32;;;;;;;7.40;5.70;;;;;;;29.98;100.00;99997.23;108857;1257;62372;-90
2023/07/31 04:00:22;;;;;;;9.90;5.60;;;;;;;30.32;100.00;100003.72;108686;1257;66485;-90
2023/07/31 04:03:11;;;;;;;9.50;6.10;;;;;;;30.54;100.00;100010.55;108757;1256;61731;-91
2023/07/31 04:05:59;;;;;;;8.70;6.40;;;;;;;30.70;100.00;100013.83;108921;1256;59860;-90
2023/07/31 04:08:47;;;;;;;9.10;5.80;;;;;;;31.00;100.00;100019.23;108923;1257;69110;-87
2023/07/31 04:11:36;;;;;;;9.30;5.60;;;;;;;31.14;100.00;100023.98;108913;1257;59742;-91
2023/07/31 04:14:24;;;;;;;7.60;5.30;;;;;;;31.20;100.00;100024.27;108752;1256;65046;-87
2023/07/31 04:17:13;;;;;;;9.80;5.40;;;;;;;31.33;100.00;100027.84;108837;1257;63367;-90
2023/07/31 04:20:02;;;;;;;8.90;5.60;;;;;;;31.48;100.00;100032.50;108892;1257;60537;-90
2023/07/31 04:22:50;;;;;;;6.90;5.30;;;;;;;31.55;100.00;100040.84;108907;1256;67689;-90
2023/07/31 04:25:39;;;;;;;6.20;5.50;;;;;;;31.63;100.00;100036.08;108850;1257;60727;-87
2023/07/31 04:28:27;;;;;;;6.10;4.90;;;;;;;31.69;100.00;100030.72;108884;1256;65874;-89
2023/07/31 04:31:16;;;;;;;6.40;4.60;;;;;;;31.78;100.00;100031.74;108850;1257;59641;-88
2023/07/31 04:34:04;;;;;;;8.70;5.50;;;;;;;31.74;100.00;100032.55;108862;1257;59728;-88
2023/07/31 04:36:52;;;;;;;6.50;4.30;;;;;;;31.78;100.00;100037.96;108839;1257;67178;-90
2023/07/31 04:39:41;;;;;;;6.40;5.00;;;;;;;31.87;100.00;100046.58;108761;1257;59788;-92
2023/07/31 04:42:29;;;;;;;7.70;4.60;;;;;;;32.10;100.00;100044.16;108765;1257;65826;-91
2023/07/31 04:45:18;;;;;;;5.40;4.70;;;;;;;32.39;100.00;100044.98;108808;1257;59322;-91
2023/07/31 04:48:06;;;;;;;7.40;4.80;;;;;;;32.59;100.00;100049.37;108799;1257;59549;-88
2023/07/31 04:50:54;;;;;;;5.70;4.40;;;;;;;32.76;100.00;100049.80;108780;1256;67548;-88
2023/07/31 04:53:43;;;;;;;9.80;4.20;;;;;;;32.88;100.00;100052.64;108818;1257;61532;-90
2023/07/31 04:56:32;;;;;;;6.00;4.50;;;;;;;32.88;100.00;100053.52;108683;1257;65824;-89
2023/07/31 04:59:20;;;;;;;9.10;4.50;;;;;;;32.90;100.00;100059.06;108848;1256;59461;-89
2023/07/31 05:02:08;;;;;;;5.80;4.00;;;;;;;33.07;100.00;100062.13;108734;1257;59004;-88
2023/07/31 05:04:57;;;;;;;4.80;4.00;;;;;;;33.16;100.00;100064.00;108782;1256;67320;-89
2023/07/31 05:07:45;;;;;;;5.20;3.90;;;;;;;33.16;100.00;100064.58;108852;1257;62556;-88
2023/07/31 05:10:34;;;;;;;7.20;3.90;;;;;;;33.24;100.00;100070.84;108802;1256;62446;-90
2023/07/31 05:13:22;;;;;;;7.70;4.10;;;;;;;33.30;100.00;100072.85;108795;1257;59854;-91
2023/07/31 05:16:11;;;;;;;4.40;3.80;;;;;;;33.57;100.00;100069.66;108753;1256;59714;-89
2023/07/31 05:18:59;;;;;;;9.60;4.00;;;;;;;33.61;100.00;100066.40;108839;1256;68625;-89
2023/07/31 05:21:47;;;;;;;5.10;3.80;;;;;;;33.58;100.00;100065.19;108747;1255;62423;-89
2023/07/31 05:24:36;;;;;;;6.00;3.40;;;;;;;33.63;100.00;100066.82;108761;1258;64659;-90
2023/07/31 05:27:24;;;;;;;7.10;3.90;;;;;;;33.65;100.00;100069.59;108842;1260;59473;-90
2023/07/31 05:30:13;;;;;;;5.60;3.70;;;;;;;33.68;100.00;100070.33;108810;1257;59200;-89
2023/07/31 05:33:02;;;;;;;4.30;3.50;;;;;;;33.72;100.00;100073.21;108805;1256;67179;-89
2023/07/31 05:35:50;;;;;;;5.40;3.70;;;;;;;33.77;100.00;100075.80;108868;1256;62726;-90
2023/07/31 05:38:39;;;;;;;6.10;3.70;;;;;;;33.82;100.00;100078.98;108742;1255;66554;-89
2023/07/31 05:41:30;;;;;;;7.70;3.80;;;;;;;33.95;100.00;100079.94;108805;1256;59110;-89
2023/07/31 05:44:18;;;;;;;7.70;3.90;;;;;;;34.10;100.00;100078.05;108742;1259;59082;-91
2023/07/31 05:47:07;;;;;;;5.40;3.60;;;;;;;34.19;100.00;100076.40;108802;1256;64918;-89
2023/07/31 05:49:55;;;;;;;4.30;3.90;;;;;;;34.27;100.00;100074.47;108843;1257;61643;-89
2023/07/31 05:52:44;;;;;;;4.20;3.80;;;;;;;34.27;100.00;100070.82;108797;1256;65694;-88
2023/07/31 05:55:32;;;;;;;4.80;4.00;;;;;;;34.08;100.00;100072.33;108720;1257;59180;-88
2023/07/31 05:58:21;;;;;;;8.20;4.30;;;;;;;33.86;100.00;100074.98;108850;1255;59192;-89
2023/07/31 06:01:09;;;;;;;6.60;4.00;;;;;;;33.66;100.00;100074.17;108811;1257;64800;-89
2023/07/31 06:03:58;;;;;;;9.50;4.20;;;;;;;33.44;100.00;100078.06;108799;1256;61798;-89
2023/07/31 06:06:46;;;;;;;9.40;4.20;;;;;;;33.18;100.00;100082.15;108796;1257;65669;-89
2023/07/31 06:09:35;;;;;;;7.00;4.30;;;;;;;33.09;100.00;100086.02;108778;1256;61287;-90
2023/07/31 06:12:24;;;;;;;7.60;4.50;;;;;;;33.09;100.00;100091.93;108809;1255;60793;-88
2023/07/31 06:15:16;;;;;;;9.20;4.00;;;;;;;32.90;100.00;100095.53;108787;1255;66744;-89
2023/07/31 06:18:07;;;;;;;5.90;4.50;;;;;;;32.80;100.00;100090.67;108793;1256;61068;-91
2023/07/31 06:20:56;;;;;;;;;;;;;;;32.71;100.00;100085.96;108685;1256;66083;-90
2023/07/31 06:23:45;;;;;;;6.10;4.80;;;;;;;32.68;100.00;100082.00;108731;1255;59597;-88
2023/07/31 06:26:33;;;;;;;7.90;4.70;;;;;;;32.53;100.00;100084.10;108800;1256;59269;-88
2023/07/31 06:29:21;;;;;;;7.50;4.70;;;;;;;32.50;100.00;100086.10;108855;1256;64910;-88
2023/07/31 06:32:10;;;;;;;8.70;5.50;;;;;;;32.25;100.00;100088.27;108796;1255;62193;-88
2023/07/31 06:34:58;;;;;;;6.30;5.00;;;;;;;32.24;100.00;100089.58;108783;1257;62476;-87
2023/07/31 06:37:47;;;;;;;9.60;5.60;;;;;;;32.22;100.00;100089.38;108638;1255;59172;-88
2023/07/31 06:40:35;;;;;;;8.00;6.20;;;;;;;32.15;100.00;100086.48;108858;1256;59743;-88
2023/07/31 06:43:23;;;;;;;10.50;6.70;;;;;;;31.97;100.00;100091.34;108837;1260;66586;-87
2023/07/31 06:46:16;;;;;;;8.80;6.40;;;;;;;31.74;100.00;100099.45;108769;1255;60049;-87
2023/07/31 06:49:04;;;;;;;9.00;6.70;;;;;;;31.57;100.00;100101.88;108781;1256;65780;-85
2023/07/31 06:51:53;;;;;;;9.70;6.40;;;;;;;31.57;100.00;100106.47;108838;1255;59344;-85
2023/07/31 06:54:41;;;;;;;7.70;5.90;;;;;;;31.49;100.00;100108.30;108798;1255;59342;-86
2023/07/31 06:57:29;;;;;;;7.60;6.00;;;;;;;31.49;100.00;100108.23;108874;1255;68408;-86
2023/07/31 07:00:19;;;;;;;10.70;6.20;;;;;;;31.47;100.00;100103.33;108781;1256;62605;-87
2023/07/31 07:03:07;;;;;;;10.00;6.30;;;;;;;31.50;100.00;100095.77;108768;1256;65424;-87
2023/07/31 07:05:56;;;;;;;8.80;5.70;;;;;;;31.55;100.00;100093.52;108842;1257;61788;-87
2023/07/31 07:08:44;;;;;;;9.40;6.10;;;;;;;31.58;100.00;100087.32;108740;1257;59034;-88
2023/07/31 07:11:32;;;;;;;7.00;5.60;;;;;;;31.50;100.00;100086.52;108725;1256;68422;-87
2023/07/31 07:14:21;;;;;;;9.10;6.70;;;;;;;31.42;100.00;100088.04;108849;1255;62254;-88
2023/07/31 07:17:10;;;;;;;7.20;6.50;;;;;;;31.38;100.00;100083.00;108816;1255;66097;-88
2023/07/31 07:19:59;;;;;;;8.60;6.30;;;;;;;31.51;100.00;100081.33;108793;1256;59773;-87
2023/07/31 07:22:47;;;;;;;7.10;6.40;;;;;;;31.73;100.00;100077.60;108836;1255;60068;-88
2023/07/31 07:25:37;;;;;;;8.30;6.30;;;;;;;31.85;100.00;100075.91;108869;1255;68342;-87
2023/07/31 07:28:26;;;;;;;8.30;6.20;;;;;;;31.91;100.00;100079.49;108825;1255;59680;-87
2023/07/31 07:31:14;;;;;;;10.90;6.70;;;;;;;32.03;100.00;100086.06;108845;1255;65208;-88
2023/07/31 07:34:02;;;;;;;11.20;7.50;;;;;;;32.21;100.00;100094.16;108823;1255;60642;-87
2023/07/31 07:36:51;;;;;;;10.40;7.30;;;;;;;32.55;100.00;100098.99;108837;1255;59215;-87
2023/07/31 07:39:39;;;;;;;8.00;7.20;;;;;;;32.94;100.00;100103.03;108856;1256;65815;-88
2023/07/31 07:42:28;;;;;;;9.00;8.10;;;;;;;33.35;100.00;100102.92;108845;1255;61723;-88
2023/07/31 07:45:16;;;;;;;9.80;6.90;;;;;;;33.75;100.00;100099.73;108859;1256;66444;-89
2023/07/31 07:48:05;;;;;;;8.60;6.50;;;;;;;33.96;100.00;100100.06;108865;1256;59175;-87
2023/07/31 07:50:53;;;;;;;10.80;6.70;;;;;;;33.88;100.00;100097.94;108851;1255;59009;-88
2023/07/31 07:53:42;;;;;;;6.90;5.90;;;;;;;33.89;100.00;100095.64;108807;1255;65717;-88
2023/07/31 07:56:30;;;;;;;6.50;5.90;;;;;;;34.01;100.00;100095.88;108842;1256;60476;-88
2023/07/31 07:59:18;;;;;;;8.60;6.50;;;;;;;34.00;100.00;100100.11;108787;1256;65050;-88
2023/07/31 08:02:07;;;;;;;10.10;6.00;;;;;;;33.86;100.00;100099.92;108766;1256;59190;-89
2023/07/31 08:04:55;;;;;;;10.90;6.60;;;;;;;33.70;100.00;100102.81;108922;1255;59685;-88
2023/07/31 08:07:43;;;;;;;8.80;5.80;;;;;;;33.79;100.00;100110.66;108903;1256;73856;-87
2023/07/31 08:10:32;;;;;;;7.70;6.20;;;;;;;33.81;100.00;100112.38;108753;1257;60771;-88
2023/07/31 08:13:20;;;;;;;9.60;6.60;;;;;;;33.68;100.00;100108.23;108899;1255;66302;-89
2023/07/31 08:16:09;;;;;;;8.90;6.90;;;;;;;33.78;100.00;100108.35;108712;1255;59710;-88
2023/07/31 08:18:58;;;;;;;11.90;7.10;;;;;;;33.78;100.00;100108.73;108878;1255;59685;-87
2023/07/31 08:21:46;;;;;;;10.50;6.50;;;;;;;33.73;100.00;100109.68;108842;1256;68132;-88
2023/07/31 08:24:35;;;;;;;12.10;6.80;;;;;;;33.64;100.00;100115.02;108841;1255;59688;-88
2023/07/31 08:27:23;;;;;;;12.30;7.70;;;;;;;33.61;100.00;100115.36;108830;1256;66298;-91
2023/07/31 08:30:12;;;;;;;10.10;7.60;;;;;;;33.68;100.00;100110.96;108802;1256;59765;-90
2023/07/31 08:33:00;;;;;;;7.90;7.10;;;;;;;33.68;100.00;100106.65;108824;1255;60003;-90
2023/07/31 08:35:49;;;;;;;16.30;9.70;;;;;;;33.71;100.00;100115.48;108809;1257;64484;-90
2023/07/31 08:38:37;;;;;;;9.60;7.20;;;;;;;33.63;100.00;100123.00;108792;1255;61083;-90
2023/07/31 08:41:27;;;;;;;14.00;7.90;;;;;;;33.54;100.00;100128.30;108844;1255;66299;-89
2023/07/31 08:44:15;;;;;;;10.40;7.70;;;;;;;33.41;100.00;100131.87;108795;1256;59106;-91
2023/07/31 08:47:04;;;;;;;10.30;7.10;;;;;;;33.22;100.00;100133.89;108800;1255;59288;-91
2023/07/31 08:49:53;;;;;;;11.80;7.60;;;;;;;33.20;100.00;100136.05;108831;1259;64625;-90
2023/07/31 08:52:41;;;;;;;9.50;7.00;;;;;;;32.91;100.00;100138.11;108817;1255;61352;-89
2023/07/31 08:55:29;;;;;;;8.50;7.10;;;;;;;32.75;100.00;100137.66;108856;1255;66210;-89
2023/07/31 08:58:18;;;;;;;13.80;7.40;;;;;;;32.64;100.00;100141.16;108800;1257;59551;-91
2023/07/31 09:01:06;;;;;;;10.70;7.70;;;;;;;32.59;100.00;100140.45;108841;1255;59261;-90
2023/07/31 09:03:55;;;;;;;10.40;7.30;;;;;;;32.62;100.00;100141.20;108895;1255;68484;-91
2023/07/31 09:06:43;;;;;;;8.70;7.40;;;;;;;32.61;100.00;100139.77;108823;1257;62251;-90
2023/07/31 09:09:32;;;;;;;10.80;7.40;;;;;;;32.65;100.00;100138.14;108744;1256;65145;-91
2023/07/31 09:12:20;;;;;;;10.60;7.70;;;;;;;32.71;100.00;100136.23;108849;1256;59136;-89
2023/07/31 09:15:09;;;;;;;8.20;7.30;;;;;;;32.74;100.00;100143.52;108804;1256;59614;-91
2023/07/31 09:18:18;;;;;;;12.90;7.70;;;;;;;32.74;100.00;100141.81;108857;1256;68038;-90
2023/07/31 09:21:07;;;;;;;8.90;7.50;;;;;;;32.87;100.00;100138.20;108919;1256;60531;-90
2023/07/31 10:44:31;;;;;;;12.60;4.40;;;;;;;36.25;100.00;100133.38;108870;1256;59118;-88
2023/07/31 10:47:20;;;;;;;5.70;3.40;;;;;;;36.43;100.00;100135.45;108903;1256;59710;-90
2023/07/31 10:50:23;;;;;;;9.90;4.20;;;;;;;36.56;100.00;100132.66;108837;1255;65666;-89
2023/07/31 10:53:25;;;;;;;5.90;4.00;;;;;;;36.81;100.00;100135.54;108848;1256;61107;-89
2023/07/31 10:56:18;;;;;;;6.20;3.80;;;;;;;36.89;100.00;100137.15;108917;1255;62539;-89
2023/07/31 10:59:08;;;;;;;3.90;3.50;;;;;;;36.95;100.00;100136.81;108762;1256;59239;-90
2023/07/31 11:01:57;;;;;;;8.70;4.00;;;;;;;37.13;100.00;100140.73;108801;1256;59640;-89
2023/07/31 11:04:45;;;;;;;4.80;3.70;;;;;;;37.32;100.00;100144.10;108761;1256;65689;-90
2023/07/31 11:07:48;;;;;;;6.60;3.50;;;;;;;37.49;100.00;100143.64;108759;1256;62219;-90
2023/07/31 11:10:37;;;;;;;6.10;3.40;;;;;;;37.72;100.00;100143.87;108686;1257;62554;-90
2023/07/31 11:13:25;;;;;;;4.30;3.30;;;;;;;37.99;100.00;100144.23;108773;1255;59136;-90
2023/07/31 11:16:13;;;;;;;4.50;3.50;;;;;;;38.11;100.00;100146.80;108745;1255;59505;-88
2023/07/31 11:19:02;;;;;;;9.60;3.90;;;;;;;38.15;100.00;100144.77;108790;1256;67722;-91
2023/07/31 11:21:51;;;;;;;5.70;3.40;;;;;;;38.14;100.00;100144.71;108833;1255;60215;-89
2023/07/31 11:24:40;;;;;;;4.20;3.70;;;;;;;38.07;100.00;100144.59;108820;1256;64015;-89
2023/07/31 11:27:28;;;;;;;6.00;3.60;;;;;;;38.12;100.00;100144.08;108848;1255;59207;-89
2023/07/31 11:30:19;;;;;;;6.30;3.50;;;;;;;38.17;100.00;100141.83;108830;1256;59005;-91
2023/07/31 11:33:08;;;;;;;9.90;3.60;;;;;;;38.17;100.00;100140.21;108786;1255;68236;-92
2023/07/31 11:35:57;;;;;;;8.10;3.70;;;;;;;38.11;100.00;100143.12;108752;1255;62216;-93
2023/07/31 11:38:45;;;;;;;7.50;3.50;;;;;;;38.06;100.00;100142.76;108744;1255;75002;-91
2023/07/31 11:41:34;;;;;;;4.90;3.40;;;;;;;37.95;100.00;100136.91;108688;1255;59329;-91
2023/07/31 11:44:23;;;;;;;5.40;3.60;;;;;;;37.62;100.00;100136.02;108858;1255;59582;-92
2023/07/31 11:47:16;;;;;;;6.10;3.50;;;;;;;37.55;100.00;100130.66;108782;1257;74018;-92
2023/07/31 11:50:06;;;;;;;4.50;3.80;;;;;;;37.59;100.00;100128.48;108744;1257;60929;-92
2023/07/31 11:52:59;;;;;;;5.70;3.80;;;;;;;37.67;100.00;100123.02;108769;1255;74891;-91
2023/07/31 11:55:47;;;;;;;7.40;4.20;;;;;;;37.68;100.00;100122.83;108855;1256;60916;-91
2023/07/31 11:58:36;;;;;;;7.90;4.30;;;;;;;37.72;100.00;100123.03;108754;1255;59286;-90
2023/07/31 12:01:24;;;;;;;6.00;5.00;;;;;;;37.67;100.00;100123.23;108767;1257;66857;-93
2023/07/31 12:04:13;;;;;;;6.10;4.20;;;;;;;37.57;100.00;100118.59;108770;1255;68690;-92
2023/07/31 12:07:01;;;;;;;5.80;4.40;;;;;;;37.63;100.00;100121.87;108751;1256;64999;-92
2023/07/31 12:09:52;;;;;;;5.00;4.40;;;;;;;37.58;100.00;100123.48;108770;1256;59620;-92
2023/07/31 12:12:41;;;;;;;6.10;4.20;;;;;;;37.58;100.00;100124.02;108803;1255;59685;-91
2023/07/31 12:15:33;;;;;;;9.80;4.60;;;;;;;37.66;100.00;100122.31;108759;1255;67677;-93
2023/07/31 12:18:21;;;;;;;7.20;4.00;;;;;;;37.65;100.00;100123.23;108751;1257;61670;-92
2023/07/31 12:21:13;;;;;;;9.00;4.30;;;;;;;37.49;100.00;100122.69;108692;1257;65724;-91
2023/07/31 12:24:02;;;;;;;5.00;4.20;;;;;;;37.34;100.00;100128.23;108688;1255;59344;-90
2023/07/31 12:26:52;;;;;;;7.30;4.40;;;;;;;37.31;100.00;100129.77;108694;1257;59220;-91
2023/07/31 12:29:41;;;;;;;6.30;4.50;;;;;;;37.15;100.00;100133.77;108814;1255;67858;-90
2023/07/31 12:32:32;;;;;;;6.90;4.60;;;;;;;37.16;100.00;100129.25;108732;1255;60651;-92
2023/07/31 12:35:20;;;;;;;8.50;5.10;;;;;;;36.99;100.00;100129.44;108723;1255;65989;-90
2023/07/31 12:38:09;;;;;;;6.70;4.60;;;;;;;36.81;100.00;100130.23;108782;1255;59218;-90
2023/07/31 12:40:58;;;;;;;7.30;4.60;;;;;;;36.61;100.00;100134.59;108818;1255;59322;-90
2023/07/31 12:43:46;;;;;;;5.50;4.70;;;;;;;36.46;100.00;100130.20;108742;1255;67029;-94
2023/07/31 12:46:35;;;;;;;11.90;5.20;;;;;;;36.27;100.00;100129.73;108822;1257;61020;-93
2023/07/31 12:49:25;;;;;;;5.40;4.80;;;;;;;36.04;100.00;100139.27;108857;1255;75660;-93
2023/07/31 12:52:14;;;;;;;6.70;5.80;;;;;;;35.86;100.00;100138.05;108779;1257;59181;-94
2023/07/31 12:55:04;;;;;;;8.30;5.60;;;;;;;35.68;100.00;100137.40;108801;1255;61175;-92
2023/07/31 12:57:53;;;;;;;6.20;5.50;;;;;;;35.43;100.00;100135.73;108759;1255;76958;-91
2023/07/31 13:00:43;;;;;;;7.20;5.30;;;;;;;35.35;100.00;100130.40;108762;1255;59985;-92
2023/07/31 13:03:32;;;;;;;7.50;5.70;;;;;;;35.25;100.00;100129.67;108775;1255;63343;-93
2023/07/31 13:06:21;;;;;;;7.70;5.30;;;;;;;35.15;100.00;100131.45;108698;1255;59209;-95
2023/07/31 13:09:09;;;;;;;9.20;5.50;;;;;;;34.99;100.00;100132.14;108832;1257;59156;-92
2023/07/31 13:11:58;;;;;;;9.50;5.60;;;;;;;34.78;100.00;100133.46;108752;1256;67826;-94
2023/07/31 13:14:47;;;;;;;8.30;6.00;;;;;;;34.71;100.00;100130.67;108784;1256;68944;-92
2023/07/31 13:17:39;;;;;;;8.70;6.60;;;;;;;34.57;100.00;100130.77;108798;1255;66223;-94
2023/07/31 13:20:28;;;;;;;8.70;6.10;;;;;;;34.28;100.00;100131.88;108769;1255;59671;-92
2023/07/31 13:23:16;;;;;;;7.70;6.50;;;;;;;34.00;100.00;100132.73;108886;1255;59481;-91
2023/07/31 13:26:05;;;;;;;10.00;6.70;;;;;;;33.93;100.00;100130.99;108784;1255;67597;-92
2023/07/31 13:28:54;;;;;;;8.80;7.20;;;;;;;33.81;100.00;100127.04;108867;1255;60643;-92
2023/07/31 13:31:43;;;;;;;11.10;7.40;;;;;;;33.62;100.00;100129.17;108812;1255;66155;-91
2023/07/31 13:34:34;;;;;;;9.80;7.00;;;;;;;33.44;100.00;100130.50;108406;1257;63551;-92
2023/07/31 13:37:23;;;;;;;10.60;7.20;;;;;;;33.29;100.00;100139.88;108816;1255;59409;-91
2023/07/31 13:40:11;;;;;;;10.60;7.90;;;;;;;33.11;100.00;100142.83;108769;1257;68408;-91
2023/07/31 13:43:00;;;;;;;10.50;6.80;;;;;;;32.99;100.00;100146.73;108749;1255;64203;-92
2023/07/31 13:45:49;;;;;;;7.80;7.00;;;;;;;32.84;100.00;100150.80;108739;1257;64676;-92
2023/07/31 13:48:37;;;;;;;9.30;5.90;;;;;;;32.62;100.00;100147.48;108782;1256;59222;-93
2023/07/31 13:51:27;;;;;;;7.80;6.50;;;;;;;32.55;100.00;100148.08;108816;1255;59075;-92
2023/07/31 13:54:16;;;;;;;10.00;6.80;;;;;;;32.34;100.00;100144.13;108865;1258;74851;-92
2023/07/31 13:57:05;;;;;;;8.40;6.50;;;;;;;32.30;100.00;100142.02;108809;1256;61972;-91
2023/07/31 13:59:53;;;;;;;7.10;6.40;;;;;;;32.36;100.00;100140.45;108825;1256;62462;-90
2023/07/31 14:02:44;;;;;;;8.20;5.70;;;;;;;32.33;100.00;100142.37;108836;1255;59625;-90
2023/07/31 14:05:33;;;;;;;6.60;5.90;;;;;;;32.28;100.00;100139.31;108686;1257;60689;-92
2023/07/31 14:08:26;;;;;;;10.60;6.30;;;;;;;32.31;100.00;100137.64;108718;1258;68148;-91
2023/07/31 14:11:15;;;;;;;8.30;6.10;;;;;;;32.33;100.00;100136.48;108842;1255;60693;-91